sensor_id;sensor_type;location;lat;lon;timestamp;pressure;altitude;pressure_sealevel;temperature;humidity
66486;BME280;53303;47.476;8.084;2022-10-15T00:00:06;96082.69;;;20.78;54.30
66486;BME280;53303;47.476;8.084;2022-10-15T00:02:32;96084.22;;;20.79;54.50
66486;BME280;53303;47.476;8.084;2022-10-15T00:04:57;96068.06;;;20.71;54.21
66486;BME280;53303;47.476;8.084;2022-10-15T00:07:23;96062.75;;;20.68;54.38
66486;BME280;53303;47.476;8.084;2022-10-15T00:09:48;96084.22;;;20.79;54.40
66486;BME280;53303;47.476;8.084;2022-10-15T00:12:13;96065.78;;;20.70;54.49
66486;BME280;53303;47.476;8.084;2022-10-15T00:14:39;96024.50;;;20.40;54.41
66486;BME280;53303;47.476;8.084;2022-10-15T00:17:07;96084.97;;;20.79;54.55
66486;BME280;53303;47.476;8.084;2022-10-15T00:19:33;96096.81;;;20.80;54.48
66486;BME280;53303;47.476;8.084;2022-10-15T00:21:58;96091.03;;;20.78;54.35
66486;BME280;53303;47.476;8.084;2022-10-15T00:24:24;96089.28;;;20.80;54.53
66486;BME280;53303;47.476;8.084;2022-10-15T00:26:49;96090.28;;;20.77;54.55
66486;BME280;53303;47.476;8.084;2022-10-15T00:29:14;96092.78;;;20.75;54.32
66486;BME280;53303;47.476;8.084;2022-10-15T00:31:40;96094.84;;;20.80;54.34
66486;BME280;53303;47.476;8.084;2022-10-15T00:34:05;96094.50;;;20.72;54.31
66486;BME280;53303;47.476;8.084;2022-10-15T00:36:34;96103.16;;;20.80;54.26
66486;BME280;53303;47.476;8.084;2022-10-15T00:39:00;96101.13;;;20.81;54.45
66486;BME280;53303;47.476;8.084;2022-10-15T00:41:38;96118.25;;;20.79;54.41
66486;BME280;53303;47.476;8.084;2022-10-15T00:46:50;96120.53;;;20.81;54.19
66486;BME280;53303;47.476;8.084;2022-10-15T00:51:47;96107.66;;;20.78;54.27
66486;BME280;53303;47.476;8.084;2022-10-15T00:54:16;96101.88;;;20.81;54.39
66486;BME280;53303;47.476;8.084;2022-10-15T00:56:43;96099.84;;;20.76;54.20
66486;BME280;53303;47.476;8.084;2022-10-15T00:59:13;96108.41;;;20.78;54.27
66486;BME280;53303;47.476;8.084;2022-10-15T01:01:40;96114.50;;;20.82;54.24
66486;BME280;53303;47.476;8.084;2022-10-15T01:04:09;96117.53;;;20.84;54.24
66486;BME280;53303;47.476;8.084;2022-10-15T01:06:36;96113.50;;;20.85;54.23
66486;BME280;53303;47.476;8.084;2022-10-15T01:09:02;96069.00;;;20.63;54.03
66486;BME280;53303;47.476;8.084;2022-10-15T01:14:33;96110.69;;;20.80;54.33
66486;BME280;53303;47.476;8.084;2022-10-15T01:30:44;96089.78;;;20.79;54.14
66486;BME280;53303;47.476;8.084;2022-10-15T01:33:40;96087.75;;;20.79;54.10
66486;BME280;53303;47.476;8.084;2022-10-15T01:38:54;96078.13;;;20.69;54.34
66486;BME280;53303;47.476;8.084;2022-10-15T01:41:29;96074.63;;;20.80;54.44
66486;BME280;53303;47.476;8.084;2022-10-15T01:44:11;96073.38;;;20.81;54.11
66486;BME280;53303;47.476;8.084;2022-10-15T01:46:46;96053.19;;;20.75;54.20
66486;BME280;53303;47.476;8.084;2022-10-15T01:49:14;96066.56;;;20.76;54.24
66486;BME280;53303;47.476;8.084;2022-10-15T01:51:46;96062.78;;;20.79;54.28
66486;BME280;53303;47.476;8.084;2022-10-15T01:54:17;96054.72;;;20.81;54.29
66486;BME280;53303;47.476;8.084;2022-10-15T01:56:48;96059.28;;;20.79;54.04
66486;BME280;53303;47.476;8.084;2022-10-15T01:59:18;96059.28;;;20.79;54.01
66486;BME280;53303;47.476;8.084;2022-10-15T02:01:45;96059.03;;;20.82;54.18
66486;BME280;53303;47.476;8.084;2022-10-15T02:04:25;96067.09;;;20.80;54.28
66486;BME280;53303;47.476;8.084;2022-10-15T02:07:10;96054.97;;;20.78;54.29
66486;BME280;53303;47.476;8.084;2022-10-15T02:15:07;96060.03;;;20.79;54.09
66486;BME280;53303;47.476;8.084;2022-10-15T02:18:04;96060.25;;;20.76;54.24
66486;BME280;53303;47.476;8.084;2022-10-15T02:20:41;96064.81;;;20.79;54.33
66486;BME280;53303;47.476;8.084;2022-10-15T02:23:17;96065.56;;;20.79;54.10
66486;BME280;53303;47.476;8.084;2022-10-15T02:25:47;96030.94;;;20.63;54.07
66486;BME280;53303;47.476;8.084;2022-10-15T02:28:23;96055.22;;;20.80;54.03
66486;BME280;53303;47.476;8.084;2022-10-15T02:30:51;96043.88;;;20.78;54.22
66486;BME280;53303;47.476;8.084;2022-10-15T02:33:21;96056.25;;;20.82;54.08
66486;BME280;53303;47.476;8.084;2022-10-15T02:35:48;96057.00;;;20.83;54.14
66486;BME280;53303;47.476;8.084;2022-10-15T02:38:18;96045.38;;;20.73;54.16
66486;BME280;53303;47.476;8.084;2022-10-15T02:40:47;96056.50;;;20.84;53.96
66486;BME280;53303;47.476;8.084;2022-10-15T02:43:18;96059.28;;;20.84;53.94
66486;BME280;53303;47.476;8.084;2022-10-15T02:45:44;96050.94;;;20.79;54.48
66486;BME280;53303;47.476;8.084;2022-10-15T02:48:09;96039.59;;;20.77;53.91
66486;BME280;53303;47.476;8.084;2022-10-15T02:50:35;96042.59;;;20.73;53.98
66486;BME280;53303;47.476;8.084;2022-10-15T02:53:00;96053.75;;;20.84;53.93
66486;BME280;53303;47.476;8.084;2022-10-15T02:55:26;96055.25;;;20.85;53.82
66486;BME280;53303;47.476;8.084;2022-10-15T02:57:54;96013.50;;;20.57;53.99
66486;BME280;53303;47.476;8.084;2022-10-15T03:00:19;96052.47;;;20.85;54.09
66486;BME280;53303;47.476;8.084;2022-10-15T03:02:45;96048.16;;;20.79;54.01
66486;BME280;53303;47.476;8.084;2022-10-15T03:05:11;96040.09;;;20.81;54.15
66486;BME280;53303;47.476;8.084;2022-10-15T03:07:36;96053.22;;;20.80;53.93
66486;BME280;53303;47.476;8.084;2022-10-15T03:10:02;96040.63;;;20.85;54.16
66486;BME280;53303;47.476;8.084;2022-10-15T03:12:30;96039.59;;;20.77;54.02
66486;BME280;53303;47.476;8.084;2022-10-15T03:14:56;96036.31;;;20.78;54.21
66486;BME280;53303;47.476;8.084;2022-10-15T03:17:21;96055.53;;;20.87;54.22
66486;BME280;53303;47.476;8.084;2022-10-15T03:19:47;96052.44;;;20.80;54.31
66486;BME280;53303;47.476;8.084;2022-10-15T03:22:12;96056.00;;;20.80;54.13
66486;BME280;53303;47.476;8.084;2022-10-15T03:24:37;96062.56;;;20.88;54.20
66486;BME280;53303;47.476;8.084;2022-10-15T03:27:03;96055.72;;;20.78;53.89
66486;BME280;53303;47.476;8.084;2022-10-15T03:29:28;96065.09;;;20.86;54.11
66486;BME280;53303;47.476;8.084;2022-10-15T03:31:54;96064.09;;;20.89;54.06
66486;BME280;53303;47.476;8.084;2022-10-15T03:34:19;96066.09;;;20.89;54.08
66486;BME280;53303;47.476;8.084;2022-10-15T03:36:44;96058.50;;;20.78;54.02
66486;BME280;53303;47.476;8.084;2022-10-15T03:39:11;96085.03;;;20.90;53.99
66486;BME280;53303;47.476;8.084;2022-10-15T03:41:37;96075.69;;;20.88;54.29
66486;BME280;53303;47.476;8.084;2022-10-15T03:44:04;96085.28;;;20.92;53.99
66486;BME280;53303;47.476;8.084;2022-10-15T03:46:30;96061.53;;;20.80;54.01
66486;BME280;53303;47.476;8.084;2022-10-15T03:48:59;96068.63;;;20.87;53.96
66486;BME280;53303;47.476;8.084;2022-10-15T03:51:24;96070.66;;;20.92;54.15
66486;BME280;53303;47.476;8.084;2022-10-15T03:53:50;96073.44;;;20.92;54.02
66486;BME280;53303;47.476;8.084;2022-10-15T03:56:15;96069.41;;;20.87;53.95
66486;BME280;53303;47.476;8.084;2022-10-15T03:58:43;96077.75;;;20.93;53.98
66486;BME280;53303;47.476;8.084;2022-10-15T04:01:11;96081.25;;;20.94;54.16
66486;BME280;53303;47.476;8.084;2022-10-15T04:03:39;96059.28;;;20.79;54.08
66486;BME280;53303;47.476;8.084;2022-10-15T04:06:05;96078.50;;;20.94;54.08
66486;BME280;53303;47.476;8.084;2022-10-15T04:08:33;96079.25;;;20.94;54.09
66486;BME280;53303;47.476;8.084;2022-10-15T04:10:58;96063.31;;;20.89;54.20
66486;BME280;53303;47.476;8.084;2022-10-15T04:13:25;96065.38;;;20.94;54.15
66486;BME280;53303;47.476;8.084;2022-10-15T04:15:51;96076.47;;;20.94;54.24
66486;BME280;53303;47.476;8.084;2022-10-15T04:18:19;96073.19;;;20.96;54.03
66486;BME280;53303;47.476;8.084;2022-10-15T04:20:48;96070.41;;;20.90;54.06
66486;BME280;53303;47.476;8.084;2022-10-15T04:23:14;96080.03;;;20.95;54.13
66486;BME280;53303;47.476;8.084;2022-10-15T04:25:40;96066.09;;;20.89;54.07
66486;BME280;53303;47.476;8.084;2022-10-15T04:28:05;96053.75;;;20.84;54.33
66486;BME280;53303;47.476;8.084;2022-10-15T04:30:31;96070.44;;;20.96;54.11
66486;BME280;53303;47.476;8.084;2022-10-15T04:32:56;96073.94;;;20.96;53.95
66486;BME280;53303;47.476;8.084;2022-10-15T04:35:25;96071.19;;;20.96;54.15
66486;BME280;53303;47.476;8.084;2022-10-15T04:37:53;96076.22;;;20.92;54.24
66486;BME280;53303;47.476;8.084;2022-10-15T04:40:21;96083.06;;;20.97;54.12
66486;BME280;53303;47.476;8.084;2022-10-15T04:42:48;96084.03;;;20.94;54.07
66486;BME280;53303;47.476;8.084;2022-10-15T04:45:16;96091.38;;;20.97;54.09
66486;BME280;53303;47.476;8.084;2022-10-15T04:47:42;96091.38;;;20.97;53.99
66486;BME280;53303;47.476;8.084;2022-10-15T04:50:07;96092.13;;;20.97;54.11
66486;BME280;53303;47.476;8.084;2022-10-15T04:52:33;96101.97;;;20.98;54.12
66486;BME280;53303;47.476;8.084;2022-10-15T04:54:59;96094.16;;;20.97;53.96
66486;BME280;53303;47.476;8.084;2022-10-15T04:57:26;96100.44;;;20.97;54.25
66486;BME280;53303;47.476;8.084;2022-10-15T04:59:52;96099.69;;;20.97;54.11
66486;BME280;53303;47.476;8.084;2022-10-15T05:02:17;96093.88;;;20.95;54.17
66486;BME280;53303;47.476;8.084;2022-10-15T05:04:43;96085.03;;;20.90;54.05
66486;BME280;53303;47.476;8.084;2022-10-15T05:07:08;96086.56;;;20.91;54.19
66486;BME280;53303;47.476;8.084;2022-10-15T05:09:34;96101.19;;;20.98;54.23
66486;BME280;53303;47.476;8.084;2022-10-15T05:11:59;96103.72;;;20.96;54.34
66486;BME280;53303;47.476;8.084;2022-10-15T05:14:24;96112.28;;;20.98;54.03
66486;BME280;53303;47.476;8.084;2022-10-15T05:16:50;96115.03;;;20.92;54.20
66486;BME280;53303;47.476;8.084;2022-10-15T05:19:15;96123.38;;;20.98;54.36
66486;BME280;53303;47.476;8.084;2022-10-15T05:21:42;96124.94;;;20.99;54.20
66486;BME280;53303;47.476;8.084;2022-10-15T05:24:08;96123.13;;;20.96;54.05
66486;BME280;53303;47.476;8.084;2022-10-15T05:26:34;96131.72;;;20.98;54.16
66486;BME280;53303;47.476;8.084;2022-10-15T05:29:00;96131.97;;;21.00;54.45
66486;BME280;53303;47.476;8.084;2022-10-15T05:31:28;96133.00;;;20.97;54.17
66486;BME280;53303;47.476;8.084;2022-10-15T05:33:54;96119.84;;;20.91;54.05
66486;BME280;53303;47.476;8.084;2022-10-15T05:36:27;96131.97;;;21.00;54.34
66486;BME280;53303;47.476;8.084;2022-10-15T05:38:55;96126.44;;;21.00;54.19
66486;BME280;53303;47.476;8.084;2022-10-15T05:41:24;96123.66;;;21.00;54.27
66486;BME280;53303;47.476;8.084;2022-10-15T05:43:51;96127.19;;;21.00;54.32
66486;BME280;53303;47.476;8.084;2022-10-15T05:46:17;96134.00;;;20.99;54.12
66486;BME280;53303;47.476;8.084;2022-10-15T05:48:47;96143.06;;;21.00;54.09
66486;BME280;53303;47.476;8.084;2022-10-15T05:51:13;96142.78;;;20.92;53.95
66486;BME280;53303;47.476;8.084;2022-10-15T05:53:39;96148.34;;;20.92;54.17
66486;BME280;53303;47.476;8.084;2022-10-15T05:56:05;96150.59;;;20.88;54.13
66486;BME280;53303;47.476;8.084;2022-10-15T05:58:33;96171.59;;;21.00;54.18
66486;BME280;53303;47.476;8.084;2022-10-15T06:01:00;96171.59;;;21.00;53.99
66486;BME280;53303;47.476;8.084;2022-10-15T06:03:26;96128.56;;;20.73;54.05
66486;BME280;53303;47.476;8.084;2022-10-15T06:05:52;96162.50;;;21.00;54.21
66486;BME280;53303;47.476;8.084;2022-10-15T06:08:18;96165.25;;;21.00;54.29
66486;BME280;53303;47.476;8.084;2022-10-15T06:10:47;96168.03;;;21.00;54.06
66486;BME280;53303;47.476;8.084;2022-10-15T06:13:13;96175.88;;;21.01;54.25
66486;BME280;53303;47.476;8.084;2022-10-15T06:15:40;96177.91;;;21.01;54.27
66486;BME280;53303;47.476;8.084;2022-10-15T06:18:09;96177.91;;;21.01;54.26
66486;BME280;53303;47.476;8.084;2022-10-15T06:20:36;96172.34;;;21.01;54.22
66486;BME280;53303;47.476;8.084;2022-10-15T06:23:03;96169.84;;;21.03;54.64
66486;BME280;53303;47.476;8.084;2022-10-15T06:25:28;96174.13;;;21.04;55.01
66486;BME280;53303;47.476;8.084;2022-10-15T06:27:54;96168.59;;;21.04;55.36
66486;BME280;53303;47.476;8.084;2022-10-15T06:30:19;96165.56;;;21.07;55.66
66486;BME280;53303;47.476;8.084;2022-10-15T06:32:49;96166.06;;;21.06;56.04
66486;BME280;53303;47.476;8.084;2022-10-15T06:35:15;96163.28;;;21.06;56.17
66486;BME280;53303;47.476;8.084;2022-10-15T06:37:41;96181.00;;;21.14;55.67
66486;BME280;53303;47.476;8.084;2022-10-15T06:40:07;96178.72;;;21.13;55.79
66486;BME280;53303;47.476;8.084;2022-10-15T06:42:33;96182.75;;;21.11;55.63
66486;BME280;53303;47.476;8.084;2022-10-15T06:44:58;96174.41;;;21.06;55.48
66486;BME280;53303;47.476;8.084;2022-10-15T06:47:23;96191.81;;;21.12;55.30
66486;BME280;53303;47.476;8.084;2022-10-15T06:49:49;96184.75;;;21.05;55.38
66486;BME280;53303;47.476;8.084;2022-10-15T06:52:14;96195.88;;;21.11;55.11
66486;BME280;53303;47.476;8.084;2022-10-15T06:54:40;96189.56;;;21.10;55.23
66486;BME280;53303;47.476;8.084;2022-10-15T06:57:05;96203.44;;;21.10;55.21
66486;BME280;53303;47.476;8.084;2022-10-15T06:59:30;96180.94;;;21.03;55.13
66486;BME280;53303;47.476;8.084;2022-10-15T07:01:56;96199.88;;;21.10;54.84
66486;BME280;53303;47.476;8.084;2022-10-15T07:04:22;96203.94;;;21.09;55.11
66486;BME280;53303;47.476;8.084;2022-10-15T07:06:48;96209.00;;;21.10;54.97
66486;BME280;53303;47.476;8.084;2022-10-15T07:09:13;96209.75;;;21.11;54.90
66486;BME280;53303;47.476;8.084;2022-10-15T07:11:39;96203.13;;;21.03;54.77
66486;BME280;53303;47.476;8.084;2022-10-15T07:14:06;96212.25;;;21.09;54.96
66486;BME280;53303;47.476;8.084;2022-10-15T07:16:32;96211.78;;;21.10;54.85
66486;BME280;53303;47.476;8.084;2022-10-15T07:18:59;96212.53;;;21.11;54.92
66486;BME280;53303;47.476;8.084;2022-10-15T07:21:25;96211.72;;;21.05;54.74
66486;BME280;53303;47.476;8.084;2022-10-15T07:23:50;96217.56;;;21.13;54.98
66486;BME280;53303;47.476;8.084;2022-10-15T07:26:16;96216.31;;;21.14;54.93
66486;BME280;53303;47.476;8.084;2022-10-15T07:28:41;96212.03;;;21.13;55.05
66486;BME280;53303;47.476;8.084;2022-10-15T07:31:09;96211.72;;;21.05;54.65
66486;BME280;53303;47.476;8.084;2022-10-15T07:33:34;96220.63;;;21.15;55.01
66486;BME280;53303;47.476;8.084;2022-10-15T07:36:10;96215.81;;;21.15;54.97
66486;BME280;53303;47.476;8.084;2022-10-15T07:38:38;96207.94;;;21.08;55.19
66486;BME280;53303;47.476;8.084;2022-10-15T07:41:08;96218.09;;;21.17;55.13
66486;BME280;53303;47.476;8.084;2022-10-15T07:43:34;96214.09;;;21.18;55.18
66486;BME280;53303;47.476;8.084;2022-10-15T07:46:01;96219.09;;;21.19;55.19
66486;BME280;53303;47.476;8.084;2022-10-15T07:48:29;96224.66;;;21.19;55.07
66486;BME280;53303;47.476;8.084;2022-10-15T07:51:01;96223.41;;;21.20;55.32
66486;BME280;53303;47.476;8.084;2022-10-15T07:53:28;96222.66;;;21.20;55.33
66486;BME280;53303;47.476;8.084;2022-10-15T07:56:06;96163.66;;;20.82;55.26
66486;BME280;53303;47.476;8.084;2022-10-15T07:58:35;96215.34;;;21.22;55.35
66486;BME280;53303;47.476;8.084;2022-10-15T08:01:04;96230.75;;;21.23;55.32
66486;BME280;53303;47.476;8.084;2022-10-15T08:03:32;96225.22;;;21.23;55.33
66486;BME280;53303;47.476;8.084;2022-10-15T08:06:05;96230.28;;;21.25;54.86
66486;BME280;53303;47.476;8.084;2022-10-15T08:08:32;96219.88;;;21.20;55.24
66486;BME280;53303;47.476;8.084;2022-10-15T08:11:06;96222.63;;;21.14;55.00
66486;BME280;53303;47.476;8.084;2022-10-15T08:13:32;96226.72;;;21.24;55.04
66486;BME280;53303;47.476;8.084;2022-10-15T08:16:00;96226.22;;;21.26;55.14
66486;BME280;53303;47.476;8.084;2022-10-15T08:18:27;96232.81;;;21.28;55.13
66486;BME280;53303;47.476;8.084;2022-10-15T08:20:53;96228.50;;;21.27;54.99
66486;BME280;53303;47.476;8.084;2022-10-15T08:23:19;96234.56;;;21.32;54.87
66486;BME280;53303;47.476;8.084;2022-10-15T08:25:47;96225.47;;;21.25;54.85
66486;BME280;53303;47.476;8.084;2022-10-15T08:28:15;96242.41;;;21.33;54.84
66486;BME280;53303;47.476;8.084;2022-10-15T08:30:40;96235.84;;;21.30;54.77
66486;BME280;53303;47.476;8.084;2022-10-15T08:33:06;96249.50;;;21.34;54.76
66486;BME280;53303;47.476;8.084;2022-10-15T08:35:31;96232.00;;;21.22;55.01
66486;BME280;53303;47.476;8.084;2022-10-15T08:38:01;96248.50;;;21.37;54.95
66486;BME280;53303;47.476;8.084;2022-10-15T08:40:27;96245.44;;;21.35;54.66
66486;BME280;53303;47.476;8.084;2022-10-15T08:42:53;96262.66;;;21.39;54.86
66486;BME280;53303;47.476;8.084;2022-10-15T08:45:33;96252.28;;;21.40;54.71
66486;BME280;53303;47.476;8.084;2022-10-15T08:48:01;96259.88;;;21.39;54.77
66486;BME280;53303;47.476;8.084;2022-10-15T08:53:22;96253.03;;;21.35;54.68
66486;BME280;53303;47.476;8.084;2022-10-15T08:55:49;96259.59;;;21.37;54.59
66486;BME280;53303;47.476;8.084;2022-10-15T09:01:03;96262.41;;;21.43;54.76
66486;BME280;53303;47.476;8.084;2022-10-15T09:06:22;96253.28;;;21.37;54.67
66486;BME280;53303;47.476;8.084;2022-10-15T09:08:54;96268.22;;;21.45;54.79
66486;BME280;53303;47.476;8.084;2022-10-15T09:13:54;96262.22;;;21.46;54.68
66486;BME280;53303;47.476;8.084;2022-10-15T09:16:28;96263.91;;;21.44;54.82
66486;BME280;53303;47.476;8.084;2022-10-15T09:19:02;96260.94;;;21.47;54.75
66486;BME280;53303;47.476;8.084;2022-10-15T09:21:30;96247.69;;;21.31;55.10
66486;BME280;53303;47.476;8.084;2022-10-15T09:24:00;96253.81;;;21.41;55.02
66486;BME280;53303;47.476;8.084;2022-10-15T09:31:53;96267.28;;;21.48;54.53
66486;BME280;53303;47.476;8.084;2022-10-15T09:34:47;96264.50;;;21.48;54.52
66486;BME280;53303;47.476;8.084;2022-10-15T09:37:25;96221.13;;;21.19;54.53
66486;BME280;53303;47.476;8.084;2022-10-15T09:42:42;96267.28;;;21.54;54.63
66486;BME280;53303;47.476;8.084;2022-10-15T09:45:11;96279.91;;;21.55;54.77
66486;BME280;53303;47.476;8.084;2022-10-15T09:47:39;96276.88;;;21.53;54.74
66486;BME280;53303;47.476;8.084;2022-10-15T09:50:10;96282.19;;;21.56;54.55
66486;BME280;53303;47.476;8.084;2022-10-15T09:55:32;96269.56;;;21.55;54.69
66486;BME280;53303;47.476;8.084;2022-10-15T09:58:39;96280.38;;;21.47;54.67
66486;BME280;53303;47.476;8.084;2022-10-15T10:01:07;96266.69;;;21.44;54.79
66486;BME280;53303;47.476;8.084;2022-10-15T10:03:40;96277.91;;;21.55;54.53
66486;BME280;53303;47.476;8.084;2022-10-15T10:06:08;96287.25;;;21.58;54.47
66486;BME280;53303;47.476;8.084;2022-10-15T10:08:38;96291.56;;;21.59;54.60
66486;BME280;53303;47.476;8.084;2022-10-15T10:11:07;96287.50;;;21.60;54.47
66486;BME280;53303;47.476;8.084;2022-10-15T10:13:44;96284.72;;;21.54;54.38
66486;BME280;53303;47.476;8.084;2022-10-15T10:16:12;96275.88;;;21.56;54.37
66486;BME280;53303;47.476;8.084;2022-10-15T10:18:38;96288.25;;;21.60;54.57
66486;BME280;53303;47.476;8.084;2022-10-15T10:21:06;96282.22;;;21.62;54.54
66486;BME280;53303;47.476;8.084;2022-10-15T10:23:44;96263.25;;;21.55;54.28
66486;BME280;53303;47.476;8.084;2022-10-15T10:26:12;96275.41;;;21.63;54.38
66486;BME280;53303;47.476;8.084;2022-10-15T10:28:54;96273.38;;;21.63;54.30
66486;BME280;53303;47.476;8.084;2022-10-15T10:31:38;96273.38;;;21.58;54.32
66486;BME280;53303;47.476;8.084;2022-10-15T10:34:14;96261.19;;;21.49;54.47
66486;BME280;53303;47.476;8.084;2022-10-15T10:36:41;96266.03;;;21.55;54.47
66486;BME280;53303;47.476;8.084;2022-10-15T10:41:53;96244.47;;;21.38;54.38
66486;BME280;53303;47.476;8.084;2022-10-15T10:49:56;96283.00;;;21.62;54.50
66486;BME280;53303;47.476;8.084;2022-10-15T10:52:27;96277.94;;;21.66;54.39
66486;BME280;53303;47.476;8.084;2022-10-15T10:55:16;96271.59;;;21.60;54.27
66486;BME280;53303;47.476;8.084;2022-10-15T11:00:23;96272.66;;;21.68;54.16
66486;BME280;53303;47.476;8.084;2022-10-15T11:02:50;96259.53;;;21.69;54.35
66486;BME280;53303;47.476;8.084;2022-10-15T11:05:26;96266.59;;;21.70;54.14
66486;BME280;53303;47.476;8.084;2022-10-15T11:20:53;96259.03;;;21.76;54.32
66486;BME280;53303;47.476;8.084;2022-10-15T11:31:49;96248.16;;;21.73;54.26
66486;BME280;53303;47.476;8.084;2022-10-15T11:42:36;96238.34;;;21.77;53.94
66486;BME280;53303;47.476;8.084;2022-10-15T11:45:17;96243.16;;;21.82;54.18
66486;BME280;53303;47.476;8.084;2022-10-15T11:47:59;96238.38;;;21.83;54.05
66486;BME280;53303;47.476;8.084;2022-10-15T11:50:34;96242.69;;;21.84;54.14
66486;BME280;53303;47.476;8.084;2022-10-15T11:53:26;96225.47;;;21.80;54.04
66486;BME280;53303;47.476;8.084;2022-10-15T11:56:27;96221.19;;;21.79;53.81
66486;BME280;53303;47.476;8.084;2022-10-15T12:02:10;96205.53;;;21.87;53.30
66486;BME280;53303;47.476;8.084;2022-10-15T12:04:42;96188.09;;;21.81;53.16
66486;BME280;53303;47.476;8.084;2022-10-15T12:07:15;96206.06;;;21.91;52.87
66486;BME280;53303;47.476;8.084;2022-10-15T12:09:46;96203.56;;;21.93;52.69
66486;BME280;53303;47.476;8.084;2022-10-15T12:12:30;96210.09;;;21.90;52.78
66486;BME280;53303;47.476;8.084;2022-10-15T12:17:49;96203.78;;;21.90;52.47
66486;BME280;53303;47.476;8.084;2022-10-15T12:20:20;96208.34;;;21.93;52.52
66486;BME280;53303;47.476;8.084;2022-10-15T12:28:18;96205.84;;;21.95;52.55
66486;BME280;53303;47.476;8.084;2022-10-15T12:35:58;96193.97;;;22.05;52.72
66486;BME280;53303;47.476;8.084;2022-10-15T12:38:29;96180.34;;;22.08;52.61
66486;BME280;53303;47.476;8.084;2022-10-15T12:41:10;96193.22;;;22.11;52.63
66486;BME280;53303;47.476;8.084;2022-10-15T12:44:10;96196.75;;;22.05;52.58
66486;BME280;53303;47.476;8.084;2022-10-15T12:46:39;96188.66;;;22.08;52.78
66486;BME280;53303;47.476;8.084;2022-10-15T12:51:53;96198.28;;;22.12;52.70
66486;BME280;53303;47.476;8.084;2022-10-15T12:54:40;96206.88;;;22.09;52.90
66486;BME280;53303;47.476;8.084;2022-10-15T13:00:25;96195.00;;;22.14;52.96
66486;BME280;53303;47.476;8.084;2022-10-15T13:02:48;96186.16;;;22.10;53.25
66486;BME280;53303;47.476;8.084;2022-10-15T13:05:28;96193.25;;;22.16;53.25
66486;BME280;53303;47.476;8.084;2022-10-15T13:07:56;96193.00;;;22.20;53.23
66486;BME280;53303;47.476;8.084;2022-10-15T13:10:37;96178.59;;;22.21;53.10
66486;BME280;53303;47.476;8.084;2022-10-15T13:13:10;96168.72;;;22.20;53.09
66486;BME280;53303;47.476;8.084;2022-10-15T13:15:38;96173.78;;;22.22;53.28
66486;BME280;53303;47.476;8.084;2022-10-15T13:18:07;96172.25;;;22.21;53.33
66486;BME280;53303;47.476;8.084;2022-10-15T13:20:37;96178.09;;;22.23;53.26
66486;BME280;53303;47.476;8.084;2022-10-15T13:23:22;96177.31;;;22.22;53.37
66486;BME280;53303;47.476;8.084;2022-10-15T13:28:37;96185.41;;;22.26;53.11
66486;BME280;53303;47.476;8.084;2022-10-15T13:31:12;96175.31;;;22.23;53.14
66486;BME280;53303;47.476;8.084;2022-10-15T13:33:41;96180.66;;;22.27;53.24
66486;BME280;53303;47.476;8.084;2022-10-15T13:36:08;96180.66;;;22.27;53.24
66486;BME280;53303;47.476;8.084;2022-10-15T13:38:40;96166.94;;;22.17;53.25
66486;BME280;53303;47.476;8.084;2022-10-15T13:41:08;96172.31;;;22.27;53.30
66486;BME280;53303;47.476;8.084;2022-10-15T13:43:33;96167.50;;;22.27;53.32
66486;BME280;53303;47.476;8.084;2022-10-15T13:46:00;96165.69;;;22.24;53.18
66486;BME280;53303;47.476;8.084;2022-10-15T13:48:30;96162.66;;;22.22;53.27
66486;BME280;53303;47.476;8.084;2022-10-15T13:51:00;96170.75;;;22.25;53.26
66486;BME280;53303;47.476;8.084;2022-10-15T13:53:39;96161.38;;;22.17;53.22
66486;BME280;53303;47.476;8.084;2022-10-15T13:56:34;96176.31;;;22.20;53.27
66486;BME280;53303;47.476;8.084;2022-10-15T13:59:00;96168.97;;;22.22;53.20
66486;BME280;53303;47.476;8.084;2022-10-15T14:01:28;96168.72;;;22.26;53.19
66486;BME280;53303;47.476;8.084;2022-10-15T14:04:12;96177.38;;;22.28;53.12
66486;BME280;53303;47.476;8.084;2022-10-15T14:06:39;96182.94;;;22.28;53.56
66486;BME280;53303;47.476;8.084;2022-10-15T14:09:32;96173.78;;;22.22;53.36
66486;BME280;53303;47.476;8.084;2022-10-15T14:11:59;96167.47;;;22.21;53.16
66486;BME280;53303;47.476;8.084;2022-10-15T14:16:56;96178.88;;;22.29;53.24
66486;BME280;53303;47.476;8.084;2022-10-15T14:19:25;96173.31;;;22.29;53.16
66486;BME280;53303;47.476;8.084;2022-10-15T14:21:57;96176.81;;;22.24;53.29
66486;BME280;53303;47.476;8.084;2022-10-15T14:24:28;96178.63;;;22.27;53.25
66486;BME280;53303;47.476;8.084;2022-10-15T14:27:02;96182.38;;;22.24;53.28
66486;BME280;53303;47.476;8.084;2022-10-15T14:29:34;96179.59;;;22.24;53.28
66486;BME280;53303;47.476;8.084;2022-10-15T14:32:01;96172.00;;;22.24;53.60
66486;BME280;53303;47.476;8.084;2022-10-15T14:36:58;96157.59;;;22.26;53.30
66486;BME280;53303;47.476;8.084;2022-10-15T14:39:34;96156.38;;;22.27;53.26
66486;BME280;53303;47.476;8.084;2022-10-15T14:42:05;96170.53;;;22.29;53.38
66486;BME280;53303;47.476;8.084;2022-10-15T14:44:45;96158.09;;;22.24;53.25
66486;BME280;53303;47.476;8.084;2022-10-15T14:47:23;96157.91;;;22.28;53.29
66486;BME280;53303;47.476;8.084;2022-10-15T14:49:53;96167.75;;;22.29;53.27
66486;BME280;53303;47.476;8.084;2022-10-15T14:52:19;96176.84;;;22.30;53.62
66486;BME280;53303;47.476;8.084;2022-10-15T14:57:26;96175.56;;;22.25;53.49
66486;BME280;53303;47.476;8.084;2022-10-15T14:59:53;96180.41;;;22.30;53.54
66486;BME280;53303;47.476;8.084;2022-10-15T15:02:21;96177.88;;;22.32;53.52
66486;BME280;53303;47.476;8.084;2022-10-15T15:07:32;96169.75;;;22.23;53.46
66486;BME280;53303;47.476;8.084;2022-10-15T15:10:00;96191.53;;;22.30;53.39
66486;BME280;53303;47.476;8.084;2022-10-15T15:12:26;96155.31;;;22.13;53.50
66486;BME280;53303;47.476;8.084;2022-10-15T15:14:52;96170.00;;;22.25;53.59
66486;BME280;53303;47.476;8.084;2022-10-15T15:17:25;96186.47;;;22.34;53.58
66486;BME280;53303;47.476;8.084;2022-10-15T15:19:53;96176.09;;;22.35;53.45